KCNU/CNU METAR and TAF weather

Enter ICAO airport designator
Station Type Date Time Source
KCNU METAR 2022/06/26 08:06 UTC NOAA

KCNU 260806Z AUTO 06004KT 8SM -TSRA FEW037 BKN110 23/21 A3013 RMK AO2 LTG DSNT ALQDS TSB00 P0001 T02280206 $


Station Type Date Time Source
KCNU Decoded METAR 2022/06/26 08:06 UTC NOAA

CHANUTE JOHNSON AIRPORT, KS, United States (KCNU) 37-40N 95-29W 297M
Jun 26, 2022 - 04:06 AM EDT / 2022.06.26 0806 UTC
Wind: from the ENE (060 degrees) at 5 MPH (4 KT):0
Visibility: 8 mile(s):0
Sky conditions: mostly cloudy
Weather: light rain with thunder; Lightning observed
Precipitation last hour: 0.01 inches
Temperature: 73.0 F (22.8 C)
Dew Point: 69.1 F (20.6 C)
Relative Humidity: 87%
Pressure (altimeter): 30.13 in. Hg (1020 hPa)
ob: KCNU 260806Z AUTO 06004KT 8SM -TSRA FEW037 BKN110 23/21 A3013 RMK AO2 LTG DSNT ALQDS TSB00 P0001 T02280206
cycle: 8

Station Type Date Time Source
KCNU TAF 2022/06/26 07:12 UTC NOAA

TAF
AMD KCNU 260711Z 2607/2706 36010KT P6SM VCTS BKN060CB
TEMPO 2607/2610 4SM -TSRA BR FEW060CB
FM261400 02012KT P6SM BKN120

Example: see airport list